sensor_id;sensor_type;location;lat;lon;timestamp;temperature;humidity
28189;DHT22;15471;51.166;4.470;2022-12-07T00:01:06;4.80;99.90
28189;DHT22;15471;51.166;4.470;2022-12-07T00:03:33;4.70;99.90
28189;DHT22;15471;51.166;4.470;2022-12-07T00:06:00;4.70;99.90
28189;DHT22;15471;51.166;4.470;2022-12-07T00:08:26;4.60;99.90
28189;DHT22;15471;51.166;4.470;2022-12-07T00:10:52;4.60;99.90
28189;DHT22;15471;51.166;4.470;2022-12-07T00:13:18;4.60;99.90
28189;DHT22;15471;51.166;4.470;2022-12-07T00:15:44;4.50;99.90
28189;DHT22;15471;51.166;4.470;2022-12-07T00:18:10;4.50;99.90
28189;DHT22;15471;51.166;4.470;2022-12-07T00:20:36;4.50;99.90
28189;DHT22;15471;51.166;4.470;2022-12-07T00:23:02;4.50;99.90
28189;DHT22;15471;51.166;4.470;2022-12-07T00:25:28;4.50;99.90
28189;DHT22;15471;51.166;4.470;2022-12-07T00:27:55;4.60;99.90
28189;DHT22;15471;51.166;4.470;2022-12-07T00:30:24;4.50;99.90
28189;DHT22;15471;51.166;4.470;2022-12-07T00:32:50;4.50;99.90
28189;DHT22;15471;51.166;4.470;2022-12-07T00:35:16;4.50;99.90
28189;DHT22;15471;51.166;4.470;2022-12-07T00:37:41;4.50;99.90
28189;DHT22;15471;51.166;4.470;2022-12-07T00:40:07;4.60;99.90
28189;DHT22;15471;51.166;4.470;2022-12-07T00:42:33;4.60;99.90
28189;DHT22;15471;51.166;4.470;2022-12-07T00:44:59;4.70;99.90
28189;DHT22;15471;51.166;4.470;2022-12-07T00:47:25;4.80;99.90
28189;DHT22;15471;51.166;4.470;2022-12-07T00:49:51;4.80;99.90
28189;DHT22;15471;51.166;4.470;2022-12-07T00:52:16;4.70;99.90
28189;DHT22;15471;51.166;4.470;2022-12-07T00:54:42;4.70;99.90
28189;DHT22;15471;51.166;4.470;2022-12-07T00:57:08;4.70;99.90
28189;DHT22;15471;51.166;4.470;2022-12-07T00:59:34;4.70;99.90
28189;DHT22;15471;51.166;4.470;2022-12-07T01:01:59;4.70;99.90
28189;DHT22;15471;51.166;4.470;2022-12-07T01:04:25;4.60;99.90
28189;DHT22;15471;51.166;4.470;2022-12-07T01:06:51;4.50;99.90
28189;DHT22;15471;51.166;4.470;2022-12-07T01:09:18;4.60;99.90
28189;DHT22;15471;51.166;4.470;2022-12-07T01:11:44;4.70;99.90
28189;DHT22;15471;51.166;4.470;2022-12-07T01:14:09;4.80;99.90
28189;DHT22;15471;51.166;4.470;2022-12-07T01:16:35;4.90;99.90
28189;DHT22;15471;51.166;4.470;2022-12-07T01:19:02;4.90;99.90
28189;DHT22;15471;51.166;4.470;2022-12-07T01:21:32;5.00;99.90
28189;DHT22;15471;51.166;4.470;2022-12-07T01:24:04;4.90;99.90
28189;DHT22;15471;51.166;4.470;2022-12-07T01:26:30;4.80;99.90
28189;DHT22;15471;51.166;4.470;2022-12-07T01:28:56;4.70;99.90
28189;DHT22;15471;51.166;4.470;2022-12-07T01:31:25;4.60;99.90
28189;DHT22;15471;51.166;4.470;2022-12-07T01:33:54;4.60;99.90
28189;DHT22;15471;51.166;4.470;2022-12-07T01:36:32;4.60;99.90
28189;DHT22;15471;51.166;4.470;2022-12-07T01:39:00;4.50;99.90
28189;DHT22;15471;51.166;4.470;2022-12-07T01:41:29;4.50;99.90
28189;DHT22;15471;51.166;4.470;2022-12-07T01:44:29;4.40;99.90
28189;DHT22;15471;51.166;4.470;2022-12-07T01:47:04;4.40;99.90
28189;DHT22;15471;51.166;4.470;2022-12-07T01:49:44;4.40;99.90
28189;DHT22;15471;51.166;4.470;2022-12-07T01:52:28;4.40;99.90
28189;DHT22;15471;51.166;4.470;2022-12-07T01:55:03;4.40;99.90
28189;DHT22;15471;51.166;4.470;2022-12-07T01:57:31;4.40;99.90
28189;DHT22;15471;51.166;4.470;2022-12-07T01:59:58;4.40;99.90
28189;DHT22;15471;51.166;4.470;2022-12-07T02:05:17;4.30;99.90
28189;DHT22;15471;51.166;4.470;2022-12-07T02:07:44;4.30;99.90
28189;DHT22;15471;51.166;4.470;2022-12-07T02:10:17;4.20;99.90
28189;DHT22;15471;51.166;4.470;2022-12-07T02:12:46;4.20;99.90
28189;DHT22;15471;51.166;4.470;2022-12-07T02:15:12;4.20;99.90
28189;DHT22;15471;51.166;4.470;2022-12-07T02:28:35;4.40;99.90
28189;DHT22;15471;51.166;4.470;2022-12-07T02:31:12;4.40;99.90
28189;DHT22;15471;51.166;4.470;2022-12-07T02:33:49;4.40;99.90
28189;DHT22;15471;51.166;4.470;2022-12-07T02:36:29;4.40;99.90
28189;DHT22;15471;51.166;4.470;2022-12-07T02:39:02;4.50;99.90
28189;DHT22;15471;51.166;4.470;2022-12-07T02:41:35;4.60;99.90
28189;DHT22;15471;51.166;4.470;2022-12-07T02:44:09;4.70;99.90
28189;DHT22;15471;51.166;4.470;2022-12-07T02:46:46;4.70;99.90
28189;DHT22;15471;51.166;4.470;2022-12-07T02:49:14;4.80;99.90
28189;DHT22;15471;51.166;4.470;2022-12-07T02:51:46;4.80;99.90
28189;DHT22;15471;51.166;4.470;2022-12-07T02:54:14;4.80;99.90
28189;DHT22;15471;51.166;4.470;2022-12-07T03:10:24;4.80;99.90
28189;DHT22;15471;51.166;4.470;2022-12-07T03:13:07;4.80;99.90
28189;DHT22;15471;51.166;4.470;2022-12-07T03:16:05;4.70;99.90
28189;DHT22;15471;51.166;4.470;2022-12-07T03:18:38;4.80;99.90
28189;DHT22;15471;51.166;4.470;2022-12-07T03:21:09;4.80;99.90
28189;DHT22;15471;51.166;4.470;2022-12-07T03:23:38;4.70;99.90
28189;DHT22;15471;51.166;4.470;2022-12-07T03:26:09;4.60;99.90
28189;DHT22;15471;51.166;4.470;2022-12-07T03:28:40;4.60;99.90
28189;DHT22;15471;51.166;4.470;2022-12-07T03:31:41;4.60;99.90
28189;DHT22;15471;51.166;4.470;2022-12-07T03:34:22;4.60;99.90
28189;DHT22;15471;51.166;4.470;2022-12-07T03:37:12;4.40;99.90
28189;DHT22;15471;51.166;4.470;2022-12-07T03:39:56;4.40;99.90
28189;DHT22;15471;51.166;4.470;2022-12-07T03:42:23;4.40;99.90
28189;DHT22;15471;51.166;4.470;2022-12-07T03:44:49;4.30;99.90
28189;DHT22;15471;51.166;4.470;2022-12-07T03:53:11;4.30;99.90
28189;DHT22;15471;51.166;4.470;2022-12-07T03:55:42;4.20;99.90
28189;DHT22;15471;51.166;4.470;2022-12-07T03:58:12;4.20;99.90
28189;DHT22;15471;51.166;4.470;2022-12-07T04:00:40;4.30;99.90
28189;DHT22;15471;51.166;4.470;2022-12-07T04:03:06;4.40;99.90
28189;DHT22;15471;51.166;4.470;2022-12-07T04:05:32;4.30;99.90
28189;DHT22;15471;51.166;4.470;2022-12-07T04:07:58;4.40;99.90
28189;DHT22;15471;51.166;4.470;2022-12-07T04:10:24;4.30;99.90
28189;DHT22;15471;51.166;4.470;2022-12-07T04:12:50;4.30;99.90
28189;DHT22;15471;51.166;4.470;2022-12-07T04:15:15;4.30;99.90
28189;DHT22;15471;51.166;4.470;2022-12-07T04:17:42;4.30;99.90
28189;DHT22;15471;51.166;4.470;2022-12-07T04:20:08;4.20;99.90
28189;DHT22;15471;51.166;4.470;2022-12-07T04:22:34;4.20;99.90
28189;DHT22;15471;51.166;4.470;2022-12-07T04:25:00;4.10;99.90
28189;DHT22;15471;51.166;4.470;2022-12-07T04:27:26;4.10;99.90
28189;DHT22;15471;51.166;4.470;2022-12-07T04:29:52;4.10;99.90
28189;DHT22;15471;51.166;4.470;2022-12-07T04:32:18;4.10;99.90
28189;DHT22;15471;51.166;4.470;2022-12-07T04:34:44;4.10;99.90
28189;DHT22;15471;51.166;4.470;2022-12-07T04:37:10;4.20;99.90
28189;DHT22;15471;51.166;4.470;2022-12-07T04:39:36;4.30;99.90
28189;DHT22;15471;51.166;4.470;2022-12-07T04:42:02;4.30;99.90
28189;DHT22;15471;51.166;4.470;2022-12-07T04:44:28;4.40;99.90
28189;DHT22;15471;51.166;4.470;2022-12-07T04:46:54;4.40;99.90
28189;DHT22;15471;51.166;4.470;2022-12-07T04:49:21;4.40;99.90
28189;DHT22;15471;51.166;4.470;2022-12-07T04:51:47;4.40;99.90
28189;DHT22;15471;51.166;4.470;2022-12-07T04:54:14;4.40;99.90
28189;DHT22;15471;51.166;4.470;2022-12-07T04:56:40;4.40;99.90
28189;DHT22;15471;51.166;4.470;2022-12-07T04:59:06;4.40;99.90
28189;DHT22;15471;51.166;4.470;2022-12-07T05:01:32;4.40;99.90
28189;DHT22;15471;51.166;4.470;2022-12-07T05:03:58;4.50;99.90
28189;DHT22;15471;51.166;4.470;2022-12-07T05:06:24;4.60;99.90
28189;DHT22;15471;51.166;4.470;2022-12-07T05:08:50;4.60;99.90
28189;DHT22;15471;51.166;4.470;2022-12-07T05:11:16;4.70;99.90
28189;DHT22;15471;51.166;4.470;2022-12-07T05:14:02;4.80;99.90
28189;DHT22;15471;51.166;4.470;2022-12-07T05:16:28;4.90;99.90
28189;DHT22;15471;51.166;4.470;2022-12-07T05:18:54;4.90;99.90
28189;DHT22;15471;51.166;4.470;2022-12-07T05:21:20;4.90;99.90
28189;DHT22;15471;51.166;4.470;2022-12-07T05:23:45;4.90;99.90
28189;DHT22;15471;51.166;4.470;2022-12-07T05:26:11;4.90;99.90
28189;DHT22;15471;51.166;4.470;2022-12-07T05:28:37;4.90;99.90
28189;DHT22;15471;51.166;4.470;2022-12-07T05:31:03;4.90;99.90
28189;DHT22;15471;51.166;4.470;2022-12-07T05:33:29;4.90;99.90
28189;DHT22;15471;51.166;4.470;2022-12-07T05:35:55;4.90;99.90
28189;DHT22;15471;51.166;4.470;2022-12-07T05:38:20;4.80;99.90
28189;DHT22;15471;51.166;4.470;2022-12-07T05:40:46;4.90;99.90
28189;DHT22;15471;51.166;4.470;2022-12-07T05:43:12;4.90;99.90
28189;DHT22;15471;51.166;4.470;2022-12-07T05:45:38;4.90;99.90
28189;DHT22;15471;51.166;4.470;2022-12-07T05:48:04;4.80;99.90
28189;DHT22;15471;51.166;4.470;2022-12-07T05:50:29;4.80;99.90
28189;DHT22;15471;51.166;4.470;2022-12-07T05:53:01;4.80;99.90
28189;DHT22;15471;51.166;4.470;2022-12-07T05:55:27;4.90;99.90
28189;DHT22;15471;51.166;4.470;2022-12-07T05:57:53;5.00;99.90
28189;DHT22;15471;51.166;4.470;2022-12-07T06:00:37;5.00;99.90
28189;DHT22;15471;51.166;4.470;2022-12-07T06:03:03;5.00;99.90
28189;DHT22;15471;51.166;4.470;2022-12-07T06:05:28;5.10;99.90
28189;DHT22;15471;51.166;4.470;2022-12-07T06:07:54;5.10;99.90
28189;DHT22;15471;51.166;4.470;2022-12-07T06:10:20;5.10;99.90
28189;DHT22;15471;51.166;4.470;2022-12-07T06:12:45;5.10;99.90
28189;DHT22;15471;51.166;4.470;2022-12-07T06:15:11;5.20;99.90
28189;DHT22;15471;51.166;4.470;2022-12-07T06:17:38;5.20;99.90
28189;DHT22;15471;51.166;4.470;2022-12-07T06:20:05;5.20;99.90
28189;DHT22;15471;51.166;4.470;2022-12-07T06:22:31;5.20;99.90
28189;DHT22;15471;51.166;4.470;2022-12-07T06:24:57;5.30;99.90
28189;DHT22;15471;51.166;4.470;2022-12-07T06:27:23;5.20;99.90
28189;DHT22;15471;51.166;4.470;2022-12-07T06:29:48;5.10;99.90
28189;DHT22;15471;51.166;4.470;2022-12-07T06:32:14;5.10;99.90
28189;DHT22;15471;51.166;4.470;2022-12-07T06:34:40;5.10;99.90
28189;DHT22;15471;51.166;4.470;2022-12-07T06:37:06;5.20;99.90
28189;DHT22;15471;51.166;4.470;2022-12-07T06:39:32;5.30;99.90
28189;DHT22;15471;51.166;4.470;2022-12-07T06:41:58;5.30;99.90
28189;DHT22;15471;51.166;4.470;2022-12-07T06:44:24;5.30;99.90
28189;DHT22;15471;51.166;4.470;2022-12-07T06:46:51;5.30;99.90
28189;DHT22;15471;51.166;4.470;2022-12-07T06:49:17;5.30;99.90
28189;DHT22;15471;51.166;4.470;2022-12-07T06:51:43;5.40;99.90
28189;DHT22;15471;51.166;4.470;2022-12-07T06:54:10;5.40;99.90
28189;DHT22;15471;51.166;4.470;2022-12-07T06:56:36;5.30;99.90
28189;DHT22;15471;51.166;4.470;2022-12-07T06:59:03;5.20;99.90
28189;DHT22;15471;51.166;4.470;2022-12-07T07:01:29;5.10;99.90
28189;DHT22;15471;51.166;4.470;2022-12-07T07:03:54;5.00;99.90
28189;DHT22;15471;51.166;4.470;2022-12-07T07:06:20;4.90;99.90
28189;DHT22;15471;51.166;4.470;2022-12-07T07:08:46;4.80;99.90
28189;DHT22;15471;51.166;4.470;2022-12-07T07:11:12;4.70;99.90
28189;DHT22;15471;51.166;4.470;2022-12-07T07:13:38;4.70;99.90
28189;DHT22;15471;51.166;4.470;2022-12-07T07:16:05;4.60;99.90
28189;DHT22;15471;51.166;4.470;2022-12-07T07:18:31;4.60;99.90
28189;DHT22;15471;51.166;4.470;2022-12-07T07:20:56;4.50;99.90
28189;DHT22;15471;51.166;4.470;2022-12-07T07:23:23;4.50;99.90
28189;DHT22;15471;51.166;4.470;2022-12-07T07:25:48;4.50;99.90
28189;DHT22;15471;51.166;4.470;2022-12-07T07:28:15;4.50;99.90
28189;DHT22;15471;51.166;4.470;2022-12-07T07:30:41;4.40;99.90
28189;DHT22;15471;51.166;4.470;2022-12-07T07:33:07;4.50;99.90
28189;DHT22;15471;51.166;4.470;2022-12-07T07:35:34;4.50;99.90
28189;DHT22;15471;51.166;4.470;2022-12-07T07:38:00;4.40;99.90
28189;DHT22;15471;51.166;4.470;2022-12-07T07:40:27;4.40;99.90
28189;DHT22;15471;51.166;4.470;2022-12-07T07:42:54;4.40;99.90
28189;DHT22;15471;51.166;4.470;2022-12-07T07:45:22;4.40;99.90
28189;DHT22;15471;51.166;4.470;2022-12-07T07:47:48;4.40;99.90
28189;DHT22;15471;51.166;4.470;2022-12-07T07:50:14;4.40;99.90
28189;DHT22;15471;51.166;4.470;2022-12-07T07:52:41;4.30;99.90
28189;DHT22;15471;51.166;4.470;2022-12-07T07:55:07;4.30;99.90
28189;DHT22;15471;51.166;4.470;2022-12-07T07:57:36;4.30;99.90
28189;DHT22;15471;51.166;4.470;2022-12-07T08:00:11;4.30;99.90
28189;DHT22;15471;51.166;4.470;2022-12-07T08:02:41;4.30;99.90
28189;DHT22;15471;51.166;4.470;2022-12-07T08:05:09;4.30;99.90
28189;DHT22;15471;51.166;4.470;2022-12-07T08:07:35;4.40;99.90
28189;DHT22;15471;51.166;4.470;2022-12-07T08:10:01;4.50;99.90
28189;DHT22;15471;51.166;4.470;2022-12-07T08:12:27;4.60;99.90
28189;DHT22;15471;51.166;4.470;2022-12-07T08:14:53;4.70;99.90
28189;DHT22;15471;51.166;4.470;2022-12-07T08:17:18;4.70;99.90
28189;DHT22;15471;51.166;4.470;2022-12-07T08:19:44;4.70;99.90
28189;DHT22;15471;51.166;4.470;2022-12-07T08:22:10;4.80;99.90
28189;DHT22;15471;51.166;4.470;2022-12-07T08:24:36;4.90;99.90
28189;DHT22;15471;51.166;4.470;2022-12-07T08:27:02;5.00;99.90
28189;DHT22;15471;51.166;4.470;2022-12-07T08:29:28;5.10;99.90
28189;DHT22;15471;51.166;4.470;2022-12-07T08:31:54;5.10;99.90
28189;DHT22;15471;51.166;4.470;2022-12-07T08:34:20;5.30;99.90
28189;DHT22;15471;51.166;4.470;2022-12-07T08:36:46;5.30;99.90
28189;DHT22;15471;51.166;4.470;2022-12-07T08:39:12;5.30;99.90
28189;DHT22;15471;51.166;4.470;2022-12-07T08:41:38;5.20;99.90
28189;DHT22;15471;51.166;4.470;2022-12-07T08:44:04;5.10;99.90
28189;DHT22;15471;51.166;4.470;2022-12-07T08:46:37;5.10;99.90
28189;DHT22;15471;51.166;4.470;2022-12-07T08:49:10;5.10;99.90
28189;DHT22;15471;51.166;4.470;2022-12-07T08:51:37;5.10;99.90
28189;DHT22;15471;51.166;4.470;2022-12-07T08:54:06;5.00;99.90
28189;DHT22;15471;51.166;4.470;2022-12-07T08:56:33;5.10;99.90
28189;DHT22;15471;51.166;4.470;2022-12-07T08:58:59;5.10;99.90
28189;DHT22;15471;51.166;4.470;2022-12-07T09:01:25;5.20;99.90
28189;DHT22;15471;51.166;4.470;2022-12-07T09:03:52;5.20;99.90
28189;DHT22;15471;51.166;4.470;2022-12-07T09:06:18;5.30;99.90
28189;DHT22;15471;51.166;4.470;2022-12-07T09:08:47;5.30;99.90
28189;DHT22;15471;51.166;4.470;2022-12-07T09:11:15;5.30;99.90
28189;DHT22;15471;51.166;4.470;2022-12-07T09:13:40;5.40;99.90
28189;DHT22;15471;51.166;4.470;2022-12-07T09:16:06;5.60;99.90
28189;DHT22;15471;51.166;4.470;2022-12-07T09:18:32;5.80;99.90
28189;DHT22;15471;51.166;4.470;2022-12-07T09:20:58;6.00;99.90
28189;DHT22;15471;51.166;4.470;2022-12-07T09:23:24;5.90;99.90
28189;DHT22;15471;51.166;4.470;2022-12-07T09:25:49;5.80;99.90
28189;DHT22;15471;51.166;4.470;2022-12-07T09:28:15;5.70;99.90
28189;DHT22;15471;51.166;4.470;2022-12-07T09:30:46;5.60;99.90
28189;DHT22;15471;51.166;4.470;2022-12-07T09:33:12;5.60;99.90
28189;DHT22;15471;51.166;4.470;2022-12-07T09:35:47;5.50;99.90
28189;DHT22;15471;51.166;4.470;2022-12-07T09:38:14;5.60;99.90
28189;DHT22;15471;51.166;4.470;2022-12-07T09:40:41;5.60;99.90
28189;DHT22;15471;51.166;4.470;2022-12-07T09:43:16;5.80;99.90
28189;DHT22;15471;51.166;4.470;2022-12-07T09:45:45;6.00;99.90
28189;DHT22;15471;51.166;4.470;2022-12-07T09:48:39;6.20;99.90
28189;DHT22;15471;51.166;4.470;2022-12-07T09:51:15;6.50;99.90
28189;DHT22;15471;51.166;4.470;2022-12-07T09:53:41;6.40;99.90
28189;DHT22;15471;51.166;4.470;2022-12-07T09:56:12;6.40;99.90
28189;DHT22;15471;51.166;4.470;2022-12-07T09:58:40;6.30;99.90
28189;DHT22;15471;51.166;4.470;2022-12-07T10:03:36;6.20;99.90
28189;DHT22;15471;51.166;4.470;2022-12-07T10:06:04;6.20;99.90
28189;DHT22;15471;51.166;4.470;2022-12-07T10:08:31;6.20;99.90
28189;DHT22;15471;51.166;4.470;2022-12-07T10:10:57;6.30;99.90
28189;DHT22;15471;51.166;4.470;2022-12-07T10:16:39;6.30;99.90
28189;DHT22;15471;51.166;4.470;2022-12-07T10:19:29;6.30;99.90
28189;DHT22;15471;51.166;4.470;2022-12-07T10:22:10;6.50;99.90
28189;DHT22;15471;51.166;4.470;2022-12-07T10:24:41;6.60;99.90
28189;DHT22;15471;51.166;4.470;2022-12-07T10:27:22;6.70;99.90
28189;DHT22;15471;51.166;4.470;2022-12-07T10:29:52;6.50;99.90
28189;DHT22;15471;51.166;4.470;2022-12-07T10:34:45;6.30;99.90
28189;DHT22;15471;51.166;4.470;2022-12-07T10:39:52;6.60;99.90
28189;DHT22;15471;51.166;4.470;2022-12-07T10:42:26;6.60;99.90
28189;DHT22;15471;51.166;4.470;2022-12-07T10:45:14;6.70;99.90
28189;DHT22;15471;51.166;4.470;2022-12-07T10:56:23;7.20;99.90
28189;DHT22;15471;51.166;4.470;2022-12-07T11:01:56;7.00;99.90
28189;DHT22;15471;51.166;4.470;2022-12-07T11:10:05;6.90;99.90
28189;DHT22;15471;51.166;4.470;2022-12-07T11:26:19;7.10;99.90
28189;DHT22;15471;51.166;4.470;2022-12-07T11:36:54;7.30;99.90
28189;DHT22;15471;51.166;4.470;2022-12-07T11:39:24;7.10;99.90
28189;DHT22;15471;51.166;4.470;2022-12-07T11:42:06;7.10;99.90
28189;DHT22;15471;51.166;4.470;2022-12-07T11:44:51;7.20;99.90
28189;DHT22;15471;51.166;4.470;2022-12-07T11:50:14;7.00;99.90
28189;DHT22;15471;51.166;4.470;2022-12-07T11:52:49;7.30;99.90
28189;DHT22;15471;51.166;4.470;2022-12-07T11:55:40;7.50;99.90
28189;DHT22;15471;51.166;4.470;2022-12-07T12:03:54;7.80;99.90
28189;DHT22;15471;51.166;4.470;2022-12-07T12:06:22;7.80;99.90
28189;DHT22;15471;51.166;4.470;2022-12-07T12:09:02;7.60;99.90
28189;DHT22;15471;51.166;4.470;2022-12-07T12:20:03;6.80;99.90
28189;DHT22;15471;51.166;4.470;2022-12-07T12:22:53;6.70;99.90
28189;DHT22;15471;51.166;4.470;2022-12-07T12:25:25;6.50;99.90
28189;DHT22;15471;51.166;4.470;2022-12-07T12:27:53;6.40;99.90
28189;DHT22;15471;51.166;4.470;2022-12-07T12:30:40;6.40;99.90
28189;DHT22;15471;51.166;4.470;2022-12-07T12:33:28;6.30;99.90
28189;DHT22;15471;51.166;4.470;2022-12-07T12:44:03;6.40;99.90
28189;DHT22;15471;51.166;4.470;2022-12-07T12:57:35;6.30;99.90
28189;DHT22;15471;51.166;4.470;2022-12-07T13:02:55;6.60;99.90
28189;DHT22;15471;51.166;4.470;2022-12-07T13:05:26;6.80;99.90
28189;DHT22;15471;51.166;4.470;2022-12-07T13:08:22;7.00;99.90
28189;DHT22;15471;51.166;4.470;2022-12-07T13:10:50;7.20;99.90
28189;DHT22;15471;51.166;4.470;2022-12-07T13:15:53;7.30;99.90
28189;DHT22;15471;51.166;4.470;2022-12-07T13:29:20;7.20;99.90
28189;DHT22;15471;51.166;4.470;2022-12-07T13:31:47;7.10;99.90
28189;DHT22;15471;51.166;4.470;2022-12-07T13:34:32;7.10;99.90
28189;DHT22;15471;51.166;4.470;2022-12-07T13:37:18;7.00;99.90
28189;DHT22;15471;51.166;4.470;2022-12-07T13:42:29;6.70;99.90
28189;DHT22;15471;51.166;4.470;2022-12-07T13:44:57;6.50;99.90
28189;DHT22;15471;51.166;4.470;2022-12-07T13:49:57;6.10;99.90
28189;DHT22;15471;51.166;4.470;2022-12-07T13:52:26;6.10;99.90
28189;DHT22;15471;51.166;4.470;2022-12-07T13:57:32;6.30;99.90
28189;DHT22;15471;51.166;4.470;2022-12-07T14:00:13;6.30;99.90
28189;DHT22;15471;51.166;4.470;2022-12-07T14:03:04;6.30;99.90
28189;DHT22;15471;51.166;4.470;2022-12-07T14:05:48;6.30;99.90
28189;DHT22;15471;51.166;4.470;2022-12-07T14:08:30;6.20;99.90
28189;DHT22;15471;51.166;4.470;2022-12-07T14:10:57;6.20;99.90
28189;DHT22;15471;51.166;4.470;2022-12-07T14:15:56;6.10;99.90
28189;DHT22;15471;51.166;4.470;2022-12-07T14:18:36;6.00;99.90
28189;DHT22;15471;51.166;4.470;2022-12-07T14:21:15;6.10;99.90
28189;DHT22;15471;51.166;4.470;2022-12-07T14:23:42;6.10;99.90
28189;DHT22;15471;51.166;4.470;2022-12-07T14:26:15;6.20;99.90
28189;DHT22;15471;51.166;4.470;2022-12-07T14:28:43;6.20;99.90
28189;DHT22;15471;51.166;4.470;2022-12-07T14:31:15;6.40;99.90
28189;DHT22;15471;51.166;4.470;2022-12-07T14:33:41;6.30;99.90
28189;DHT22;15471;51.166;4.470;2022-12-07T14:36:09;6.30;99.90
28189;DHT22;15471;51.166;4.470;2022-12-07T14:38:36;6.20;99.90
28189;DHT22;15471;51.166;4.470;2022-12-07T14:41:03;6.10;99.90
28189;DHT22;15471;51.166;4.470;2022-12-07T14:43:47;6.10;99.90
28189;DHT22;15471;51.166;4.470;2022-12-07T14:46:13;6.20;99.90
28189;DHT22;15471;51.166;4.470;2022-12-07T14:48:38;6.10;99.90
28189;DHT22;15471;51.166;4.470;2022-12-07T14:51:04;6.10;99.90
28189;DHT22;15471;51.166;4.470;2022-12-07T14:53:38;6.20;99.90
28189;DHT22;15471;51.166;4.470;2022-12-07T14:56:05;6.20;99.90
28189;DHT22;15471;51.166;4.470;2022-12-07T14:58:31;6.30;99.90
28189;DHT22;15471;51.166;4.470;2022-12-07T15:00:58;6.20;99.90
28189;DHT22;15471;51.166;4.470;2022-12-07T15:03:24;6.10;99.90
28189;DHT22;15471;51.166;4.470;2022-12-07T15:05:50;5.90;99.90
28189;DHT22;15471;51.166;4.470;2022-12-07T15:08:15;5.90;99.90
28189;DHT22;15471;51.166;4.470;2022-12-07T15:10:42;5.80;99.90
28189;DHT22;15471;51.166;4.470;2022-12-07T15:13:08;5.90;99.90
28189;DHT22;15471;51.166;4.470;2022-12-07T15:15:53;5.90;99.90
28189;DHT22;15471;51.166;4.470;2022-12-07T15:18:21;5.90;99.90
28189;DHT22;15471;51.166;4.470;2022-12-07T15:20:47;5.80;99.90
28189;DHT22;15471;51.166;4.470;2022-12-07T15:23:13;5.70;99.90
28189;DHT22;15471;51.166;4.470;2022-12-07T15:25:48;5.60;99.90
28189;DHT22;15471;51.166;4.470;2022-12-07T15:28:14;5.50;99.90
28189;DHT22;15471;51.166;4.470;2022-12-07T15:30:43;5.50;99.90
28189;DHT22;15471;51.166;4.470;2022-12-07T15:33:10;5.50;99.90
28189;DHT22;15471;51.166;4.470;2022-12-07T15:35:40;5.60;99.90
28189;DHT22;15471;51.166;4.470;2022-12-07T15:38:06;5.50;99.90
28189;DHT22;15471;51.166;4.470;2022-12-07T15:40:32;5.50;99.90
28189;DHT22;15471;51.166;4.470;2022-12-07T15:42:58;5.60;99.90
28189;DHT22;15471;51.166;4.470;2022-12-07T15:45:24;5.70;99.90
28189;DHT22;15471;51.166;4.470;2022-12-07T15:47:50;5.80;99.90
28189;DHT22;15471;51.166;4.470;2022-12-07T15:50:16;5.80;99.90
28189;DHT22;15471;51.166;4.470;2022-12-07T15:52:43;5.80;99.90
28189;DHT22;15471;51.166;4.470;2022-12-07T15:55:09;5.80;99.90
28189;DHT22;15471;51.166;4.470;2022-12-07T15:57:37;5.80;99.90
28189;DHT22;15471;51.166;4.470;2022-12-07T16:00:04;5.70;99.90
28189;DHT22;15471;51.166;4.470;2022-12-07T16:02:31;5.70;99.90
28189;DHT22;15471;51.166;4.470;2022-12-07T16:04:56;5.60;99.90
28189;DHT22;15471;51.166;4.470;2022-12-07T16:07:22;5.60;99.90
28189;DHT22;15471;51.166;4.470;2022-12-07T16:09:49;5.60;99.90
28189;DHT22;15471;51.166;4.470;2022-12-07T16:12:15;5.80;99.90
28189;DHT22;15471;51.166;4.470;2022-12-07T16:14:41;5.90;99.90
28189;DHT22;15471;51.166;4.470;2022-12-07T16:17:08;6.00;99.90
28189;DHT22;15471;51.166;4.470;2022-12-07T16:19:36;6.10;99.90
28189;DHT22;15471;51.166;4.470;2022-12-07T16:22:03;6.10;99.90
28189;DHT22;15471;51.166;4.470;2022-12-07T16:24:30;6.10;99.90
28189;DHT22;15471;51.166;4.470;2022-12-07T16:26:56;6.10;99.90
28189;DHT22;15471;51.166;4.470;2022-12-07T16:29:22;6.20;99.90
28189;DHT22;15471;51.166;4.470;2022-12-07T16:31:49;6.00;99.90
28189;DHT22;15471;51.166;4.470;2022-12-07T16:34:15;5.90;99.90
28189;DHT22;15471;51.166;4.470;2022-12-07T16:36:41;5.90;99.90
28189;DHT22;15471;51.166;4.470;2022-12-07T16:39:08;5.80;99.90
28189;DHT22;15471;51.166;4.470;2022-12-07T16:41:34;5.90;99.90
28189;DHT22;15471;51.166;4.470;2022-12-07T16:44:09;5.80;99.90
28189;DHT22;15471;51.166;4.470;2022-12-07T16:46:36;5.90;99.90
28189;DHT22;15471;51.166;4.470;2022-12-07T16:49:02;5.90;99.90
28189;DHT22;15471;51.166;4.470;2022-12-07T16:51:28;6.00;99.90
28189;DHT22;15471;51.166;4.470;2022-12-07T16:53:54;6.00;99.90
28189;DHT22;15471;51.166;4.470;2022-12-07T16:56:20;5.90;99.90
28189;DHT22;15471;51.166;4.470;2022-12-07T16:58:46;5.90;99.90
28189;DHT22;15471;51.166;4.470;2022-12-07T17:01:21;5.90;99.90
28189;DHT22;15471;51.166;4.470;2022-12-07T17:03:50;5.90;99.90
28189;DHT22;15471;51.166;4.470;2022-12-07T17:06:24;6.00;99.90
28189;DHT22;15471;51.166;4.470;2022-12-07T17:08:51;5.90;99.90
28189;DHT22;15471;51.166;4.470;2022-12-07T17:11:24;5.90;99.90
28189;DHT22;15471;51.166;4.470;2022-12-07T17:13:51;5.90;99.90
28189;DHT22;15471;51.166;4.470;2022-12-07T17:16:36;5.80;99.90
28189;DHT22;15471;51.166;4.470;2022-12-07T17:19:06;5.80;99.90
28189;DHT22;15471;51.166;4.470;2022-12-07T17:21:32;5.90;99.90
28189;DHT22;15471;51.166;4.470;2022-12-07T17:23:59;5.80;99.90
28189;DHT22;15471;51.166;4.470;2022-12-07T17:26:26;5.70;99.90
28189;DHT22;15471;51.166;4.470;2022-12-07T17:28:53;5.70;99.90
28189;DHT22;15471;51.166;4.470;2022-12-07T17:31:21;5.60;99.90
28189;DHT22;15471;51.166;4.470;2022-12-07T17:33:47;5.60;99.90
28189;DHT22;15471;51.166;4.470;2022-12-07T17:36:20;5.40;99.90
28189;DHT22;15471;51.166;4.470;2022-12-07T17:38:46;5.30;99.90
28189;DHT22;15471;51.166;4.470;2022-12-07T17:41:20;5.20;99.90
28189;DHT22;15471;51.166;4.470;2022-12-07T17:44:07;5.20;99.90
28189;DHT22;15471;51.166;4.470;2022-12-07T17:46:33;5.20;99.90
28189;DHT22;15471;51.166;4.470;2022-12-07T17:49:00;5.20;99.90
28189;DHT22;15471;51.166;4.470;2022-12-07T17:51:26;5.30;99.90
28189;DHT22;15471;51.166;4.470;2022-12-07T17:54:11;5.30;99.90
28189;DHT22;15471;51.166;4.470;2022-12-07T17:56:38;5.40;99.90
28189;DHT22;15471;51.166;4.470;2022-12-07T17:59:05;5.40;99.90
28189;DHT22;15471;51.166;4.470;2022-12-07T18:01:31;5.30;99.90
28189;DHT22;15471;51.166;4.470;2022-12-07T18:03:58;5.20;99.90
28189;DHT22;15471;51.166;4.470;2022-12-07T18:06:23;5.20;99.90
28189;DHT22;15471;51.166;4.470;2022-12-07T18:08:49;5.20;99.90
28189;DHT22;15471;51.166;4.470;2022-12-07T18:11:16;5.10;99.90
28189;DHT22;15471;51.166;4.470;2022-12-07T18:13:42;5.20;99.90
28189;DHT22;15471;51.166;4.470;2022-12-07T18:16:14;5.20;99.90
28189;DHT22;15471;51.166;4.470;2022-12-07T18:18:42;5.20;99.90
28189;DHT22;15471;51.166;4.470;2022-12-07T18:21:13;5.20;99.90
28189;DHT22;15471;51.166;4.470;2022-12-07T18:23:46;5.30;99.90